Time;durP1;ratioP1;P1;durP2;ratioP2;P2;SDS_P1;SDS_P2;PMS_P1;PMS_P2;Temp;Humidity;BMP_temperature;BMP_pressure;BME280_temperature;BME280_humidity;BME280_pressure;Samples;Min_cycle;Max_cycle;Signal;HPM_P1;HPM_P2
2022/01/03 00:01:54;;;;;;;;;;;;;;;;;;7394746;19;19939;-57
2022/01/03 00:04:21;;;;;;;;;;;;;;;;;;7392643;19;20360;-51
2022/01/03 00:06:49;;;;;;;;;;;;;;;;;;7394907;19;19939;-66
2022/01/03 00:09:16;;;;;;;;;;;;;;;;;;7394668;19;19919;-52
2022/01/03 00:11:53;;;;;;;;;;;;;;;;;;7393207;19;19978;-59
2022/01/03 00:14:21;;;;;;;;;;;;;;;;;;7393952;19;19925;-64
2022/01/03 00:16:49;;;;;;;;;;;;;;;;;;7394105;19;19978;-51
2022/01/03 00:19:16;;;;;;;;;;;;;;;;;;7394096;19;19919;-52
2022/01/03 00:21:44;;;;;;;;;;;;;;;;;;7396934;19;19913;-48
2022/01/03 00:24:12;;;;;;;;;;;;;;;;;;7393365;19;19910;-54
2022/01/03 00:26:40;;;;;;;;;;;;;;;;;;7394567;19;19914;-64
2022/01/03 00:29:07;;;;;;;;;;;;;;;;;;7391887;19;19911;-51
2022/01/03 00:31:35;;;;;;;;;;;;;;;;;;7392241;19;19915;-50
2022/01/03 00:34:06;;;;;;;;;;;;;;;;;;7392310;19;20445;-52
2022/01/03 00:36:34;;;;;;;;;;;;;;;;;;7392072;19;19941;-52
2022/01/03 00:39:07;;;;;;;;;;;;;;;;;;7393612;19;19929;-63
2022/01/03 00:41:39;;;;;;;;;;;;;;;;;;7393228;19;19911;-59
2022/01/03 00:44:07;;;;;;;;;;;;;;;;;;7391759;19;19942;-54
2022/01/03 00:46:34;;;;;;;;;;;;;;;;;;7390947;19;20350;-67
2022/01/03 00:49:02;;;;;;;;;;;;;;;;;;7391716;19;20395;-54
2022/01/03 00:51:29;;;;;;;;;;;;;;;;;;7396226;19;20328;-52
2022/01/03 00:53:56;;;;;;;;;;;;;;;;;;7393195;19;20025;-57
2022/01/03 00:56:34;;;;;;;;;;;;;;;;;;7391312;19;20328;-66
2022/01/03 00:59:09;;;;;;;;;;;;;;;;;;7391496;19;19933;-52
2022/01/03 01:01:37;;;;;;;;;;;;;;;;;;7391387;19;19922;-52
2022/01/03 01:04:07;;;;;;;;;;;;;;;;;;7391620;19;20551;-66
2022/01/03 01:06:36;;;;;;;;;;;;;;;;;;7390616;19;19939;-51
2022/01/03 01:09:05;;;;;;;;;;;;;;;;;;7390839;19;19923;-66
2022/01/03 01:11:33;;;;;;;;;;;;;;;;;;7392354;19;19934;-66
2022/01/03 01:14:01;;;;;;;;;;;;;;;;;;7391855;19;19925;-52
2022/01/03 01:16:29;;;;;;;;;;;;;;;;;;7390320;19;19929;-65
2022/01/03 01:18:56;;;;;;;;;;;;;;;;;;7391800;19;19918;-51
2022/01/03 01:21:25;;;;;;;;;;;;;;;;;;7388862;19;19944;-52
2022/01/03 01:23:57;;;;;;;;;;;;;;;;;;7389476;19;19926;-53
2022/01/03 01:29:11;;;;;;;;;;;;;;;;;;7391036;19;19922;-55
2022/01/03 01:32:00;;;;;;;;;;;;;;;;;;7389263;19;19923;-49
2022/01/03 01:34:28;;;;;;;;;;;;;;;;;;7390637;19;19919;-67
2022/01/03 01:36:59;;;;;;;;;;;;;;;;;;7388754;19;19986;-53
2022/01/03 01:39:28;;;;;;;;;;;;;;;;;;7390155;19;19927;-61
2022/01/03 01:41:58;;;;;;;;;;;;;;;;;;7389487;19;19921;-60
2022/01/03 01:44:30;;;;;;;;;;;;;;;;;;7388928;19;19922;-49
2022/01/03 01:47:04;;;;;;;;;;;;;;;;;;7391749;19;20364;-52
2022/01/03 01:49:52;;;;;;;;;;;;;;;;;;7392178;19;19962;-49
2022/01/03 01:52:22;;;;;;;;;;;;;;;;;;7388941;19;19915;-60
2022/01/03 01:54:56;;;;;;;;;;;;;;;;;;7389399;19;19951;-58
2022/01/03 01:57:52;;;;;;;;;;;;;;;;;;7391540;19;19911;-49
2022/01/03 02:00:24;;;;;;;;;;;;;;;;;;7388610;19;19918;-49
2022/01/03 02:03:10;;;;;;;;;;;;;;;;;;7389134;19;20296;-55
2022/01/03 02:05:42;;;;;;;;;;;;;;;;;;7390058;19;20374;-67
2022/01/03 02:08:16;;;;;;;;;;;;;;;;;;7391129;19;20260;-65
2022/01/03 02:10:45;;;;;;;;;;;;;;;;;;7391556;19;19919;-62
2022/01/03 02:13:16;;;;;;;;;;;;;;;;;;7393504;19;19922;-55
2022/01/03 02:15:46;;;;;;;;;;;;;;;;;;7390295;19;19927;-66
2022/01/03 02:18:14;;;;;;;;;;;;;;;;;;7388424;19;19920;-67
2022/01/03 02:20:41;;;;;;;;;;;;;;;;;;7390549;19;19925;-61
2022/01/03 02:23:10;;;;;;;;;;;;;;;;;;7389711;19;19934;-47
2022/01/03 02:25:41;;;;;;;;;;;;;;;;;;7386445;19;19962;-67
2022/01/03 02:28:09;;;;;;;;;;;;;;;;;;7389194;19;19919;-51
2022/01/03 02:30:37;;;;;;;;;;;;;;;;;;7388812;19;19926;-66
2022/01/03 02:33:07;;;;;;;;;;;;;;;;;;7391367;19;19927;-52
2022/01/03 02:35:38;;;;;;;;;;;;;;;;;;7395309;19;19929;-51
2022/01/03 02:38:09;;;;;;;;;;;;;;;;;;7396355;19;19982;-52
2022/01/03 02:40:37;;;;;;;;;;;;;;;;;;7396686;19;19925;-50
2022/01/03 02:43:04;;;;;;;;;;;;;;;;;;7395119;19;19922;-52
2022/01/03 02:45:32;;;;;;;;;;;;;;;;;;7392973;19;19926;-52
2022/01/03 02:48:03;;;;;;;;;;;;;;;;;;7396635;19;19919;-48
2022/01/03 02:50:31;;;;;;;;;;;;;;;;;;7396643;19;19919;-49
2022/01/03 02:52:59;;;;;;;;;;;;;;;;;;7394613;19;19923;-67
2022/01/03 02:55:27;;;;;;;;;;;;;;;;;;7394993;19;20324;-49
2022/01/03 02:57:58;;;;;;;;;;;;;;;;;;7394940;19;19922;-66
2022/01/03 03:00:29;;;;;;;;;;;;;;;;;;7393868;19;19925;-63
2022/01/03 03:02:58;;;;;;;;;;;;;;;;;;7395048;19;19925;-55
2022/01/03 03:05:26;;;;;;;;;;;;;;;;;;7392860;19;19927;-50
2022/01/03 03:07:54;;;;;;;;;;;;;;;;;;7394328;19;19931;-51
2022/01/03 03:10:23;;;;;;;;;;;;;;;;;;7394318;19;19917;-53
2022/01/03 03:12:53;;;;;;;;;;;;;;;;;;7396311;19;19918;-61
2022/01/03 03:15:23;;;;;;;;;;;;;;;;;;7394716;19;19922;-54
2022/01/03 03:17:50;;;;;;;;;;;;;;;;;;7396615;19;19907;-67
2022/01/03 03:20:26;;;;;;;;;;;;;;;;;;7396098;19;19919;-56
2022/01/03 03:22:54;;;;;;;;;;;;;;;;;;7395170;19;19922;-66
2022/01/03 03:25:31;;;;;;;;;;;;;;;;;;7392778;19;19911;-53
2022/01/03 03:28:06;;;;;;;;;;;;;;;;;;7394586;19;19938;-69
2022/01/03 03:30:35;;;;;;;;;;;;;;;;;;7393360;19;19930;-65
2022/01/03 03:33:06;;;;;;;;;;;;;;;;;;7394335;19;19919;-53
2022/01/03 03:35:36;;;;;;;;;;;;;;;;;;7393814;19;19919;-49
2022/01/03 03:38:04;;;;;;;;;;;;;;;;;;7395773;19;19918;-65
2022/01/03 03:40:32;;;;;;;;;;;;;;;;;;7393643;19;19918;-61
2022/01/03 03:43:00;;;;;;;;;;;;;;;;;;7394707;19;20262;-52
2022/01/03 03:45:28;;;;;;;;;;;;;;;;;;7388906;19;19926;-48
2022/01/03 03:47:57;;;;;;;;;;;;;;;;;;7392977;19;19938;-48
2022/01/03 03:50:25;;;;;;;;;;;;;;;;;;7397394;19;19966;-66
2022/01/03 03:52:54;;;;;;;;;;;;;;;;;;7393689;19;19982;-58
2022/01/03 03:55:22;;;;;;;;;;;;;;;;;;7395202;19;19970;-48
2022/01/03 03:57:49;;;;;;;;;;;;;;;;;;7397588;19;19914;-49
2022/01/03 04:00:18;;;;;;;;;;;;;;;;;;7392127;19;19923;-53
2022/01/03 04:02:51;;;;;;;;;;;;;;;;;;7395494;19;19915;-48
2022/01/03 04:05:18;;;;;;;;;;;;;;;;;;7393064;19;19933;-52
2022/01/03 04:07:47;;;;;;;;;;;;;;;;;;7392657;19;19943;-54
2022/01/03 04:10:16;;;;;;;;;;;;;;;;;;7392423;19;20328;-65
2022/01/03 04:12:45;;;;;;;;;;;;;;;;;;7392556;19;20247;-66
2022/01/03 04:15:13;;;;;;;;;;;;;;;;;;7392238;19;19919;-55
2022/01/03 04:17:41;;;;;;;;;;;;;;;;;;7393895;19;19918;-57
2022/01/03 04:20:09;;;;;;;;;;;;;;;;;;7392812;19;19918;-56
2022/01/03 04:22:36;;;;;;;;;;;;;;;;;;7393934;19;19914;-66
2022/01/03 04:25:03;;;;;;;;;;;;;;;;;;7391635;19;19915;-59
2022/01/03 04:27:33;;;;;;;;;;;;;;;;;;7397172;19;19970;-53
2022/01/03 04:30:01;;;;;;;;;;;;;;;;;;7393895;19;19932;-53
2022/01/03 04:32:28;;;;;;;;;;;;;;;;;;7392048;19;20332;-55
2022/01/03 04:34:55;;;;;;;;;;;;;;;;;;7391561;19;19921;-55
2022/01/03 04:37:23;;;;;;;;;;;;;;;;;;7390474;19;19952;-49
2022/01/03 04:39:50;;;;;;;;;;;;;;;;;;7393689;19;19919;-49
2022/01/03 04:42:18;;;;;;;;;;;;;;;;;;7393596;19;19922;-50
2022/01/03 04:44:45;;;;;;;;;;;;;;;;;;7390929;19;19978;-60
2022/01/03 04:47:14;;;;;;;;;;;;;;;;;;7393448;19;19946;-53
2022/01/03 04:49:46;;;;;;;;;;;;;;;;;;7393886;19;19919;-64
2022/01/03 04:52:15;;;;;;;;;;;;;;;;;;7391293;19;19915;-63
2022/01/03 04:54:43;;;;;;;;;;;;;;;;;;7390676;19;20340;-51
2022/01/03 04:57:11;;;;;;;;;;;;;;;;;;7390334;19;19942;-49
2022/01/03 04:59:38;;;;;;;;;;;;;;;;;;7391124;19;19935;-56
2022/01/03 05:02:05;;;;;;;;;;;;;;;;;;7391531;19;19914;-47
2022/01/03 05:04:34;;;;;;;;;;;;;;;;;;7392093;19;20332;-58
2022/01/03 05:07:03;;;;;;;;;;;;;;;;;;7392373;19;19971;-51
2022/01/03 05:09:31;;;;;;;;;;;;;;;;;;7390625;19;20324;-66
2022/01/03 05:11:59;;;;;;;;;;;;;;;;;;7390904;19;19946;-62
2022/01/03 05:14:26;;;;;;;;;;;;;;;;;;7396967;19;19923;-66
2022/01/03 05:16:54;;;;;;;;;;;;;;;;;;7390482;19;19958;-60
2022/01/03 05:19:21;;;;;;;;;;;;;;;;;;7391864;19;19911;-64
2022/01/03 05:21:49;;;;;;;;;;;;;;;;;;7392113;19;19919;-58
2022/01/03 05:24:19;;;;;;;;;;;;;;;;;;7391806;19;19996;-53
2022/01/03 05:26:48;;;;;;;;;;;;;;;;;;7390058;19;20016;-64
2022/01/03 05:29:15;;;;;;;;;;;;;;;;;;7390760;19;19925;-63
2022/01/03 05:31:47;;;;;;;;;;;;;;;;;;7391807;19;19935;-54
2022/01/03 05:34:14;;;;;;;;;;;;;;;;;;7391944;19;19922;-54
2022/01/03 05:36:42;;;;;;;;;;;;;;;;;;7388280;19;20007;-51
2022/01/03 05:39:09;;;;;;;;;;;;;;;;;;7390221;19;19911;-65
2022/01/03 05:41:36;;;;;;;;;;;;;;;;;;7390498;19;19911;-52
2022/01/03 05:44:04;;;;;;;;;;;;;;;;;;7389746;19;19918;-52
2022/01/03 05:46:32;;;;;;;;;;;;;;;;;;7387588;19;19939;-50
2022/01/03 05:48:59;;;;;;;;;;;;;;;;;;7391901;19;19937;-56
2022/01/03 05:51:27;;;;;;;;;;;;;;;;;;7393695;19;19915;-66
2022/01/03 05:53:54;;;;;;;;;;;;;;;;;;7390034;19;19919;-49
2022/01/03 05:56:22;;;;;;;;;;;;;;;;;;7389591;19;19914;-51
2022/01/03 05:58:50;;;;;;;;;;;;;;;;;;7389084;19;19915;-59
2022/01/03 06:01:21;;;;;;;;;;;;;;;;;;7393369;19;19932;-51
2022/01/03 06:03:57;;;;;;;;;;;;;;;;;;7390995;19;19922;-63
2022/01/03 06:07:11;;;;;;;;;;;;;;;;;;7387495;19;19921;-52
2022/01/03 06:09:13;;;;;;;;;;;;;;;;;;7392243;19;20349;-59
2022/01/03 06:11:40;;;;;;;;;;;;;;;;;;7397954;19;19919;-54
2022/01/03 06:14:07;;;;;;;;;;;;;;;;;;7397690;19;20322;-53
2022/01/03 06:16:34;;;;;;;;;;;;;;;;;;7398246;19;19914;-52
2022/01/03 06:19:03;;;;;;;;;;;;;;;;;;7396244;19;19945;-56
2022/01/03 06:21:30;;;;;;;;;;;;;;;;;;7396871;19;19926;-65
2022/01/03 06:23:58;;;;;;;;;;;;;;;;;;7396597;19;20380;-66
2022/01/03 06:26:25;;;;;;;;;;;;;;;;;;7393402;19;19924;-59
2022/01/03 06:28:53;;;;;;;;;;;;;;;;;;7396831;19;19919;-56
2022/01/03 06:31:21;;;;;;;;;;;;;;;;;;7395906;19;20622;-66
2022/01/03 06:33:49;;;;;;;;;;;;;;;;;;7396511;19;19923;-54
2022/01/03 06:36:17;;;;;;;;;;;;;;;;;;7394030;19;19919;-50
2022/01/03 06:38:44;;;;;;;;;;;;;;;;;;7395549;19;20357;-52
2022/01/03 06:41:12;;;;;;;;;;;;;;;;;;7396397;19;19919;-51
2022/01/03 06:43:39;;;;;;;;;;;;;;;;;;7396206;19;19947;-52
2022/01/03 06:46:06;;;;;;;;;;;;;;;;;;7394849;19;19918;-49
2022/01/03 06:48:35;;;;;;;;;;;;;;;;;;7396893;19;19964;-55
2022/01/03 06:51:03;;;;;;;;;;;;;;;;;;7399038;19;19918;-55
2022/01/03 06:53:30;;;;;;;;;;;;;;;;;;7395833;19;19940;-58
2022/01/03 06:55:58;;;;;;;;;;;;;;;;;;7395405;19;19935;-53
2022/01/03 06:58:26;;;;;;;;;;;;;;;;;;7394631;19;19986;-52
2022/01/03 07:00:53;;;;;;;;;;;;;;;;;;7394698;19;19926;-54
2022/01/03 07:03:21;;;;;;;;;;;;;;;;;;7395170;19;19922;-61
2022/01/03 07:05:48;;;;;;;;;;;;;;;;;;7395351;19;19926;-51
2022/01/03 07:08:16;;;;;;;;;;;;;;;;;;7398424;19;19929;-61
2022/01/03 07:10:43;;;;;;;;;;;;;;;;;;7396704;19;19935;-54
2022/01/03 07:13:10;;;;;;;;;;;;;;;;;;7396447;19;19939;-56
2022/01/03 07:21:08;;;;;;;;;;;;;;;;;;7393366;19;19944;-51
2022/01/03 07:23:35;;;;;;;;;;;;;;;;;;7394920;19;19955;-54
2022/01/03 07:26:03;;;;;;;;;;;;;;;;;;7392031;19;19919;-53
2022/01/03 07:28:30;;;;;;;;;;;;;;;;;;7396640;19;19947;-66
2022/01/03 07:30:58;;;;;;;;;;;;;;;;;;7396170;19;19938;-51
2022/01/03 07:33:25;;;;;;;;;;;;;;;;;;7395798;19;19915;-53
2022/01/03 07:35:53;;;;;;;;;;;;;;;;;;7394428;19;19939;-52
2022/01/03 07:38:20;;;;;;;;;;;;;;;;;;7394912;19;20014;-63
2022/01/03 07:40:47;;;;;;;;;;;;;;;;;;7395804;19;19919;-49
2022/01/03 07:43:14;;;;;;;;;;;;;;;;;;7395464;19;19923;-51
2022/01/03 07:45:42;;;;;;;;;;;;;;;;;;7394814;19;19931;-62
2022/01/03 07:48:09;;;;;;;;;;;;;;;;;;7394029;19;19921;-51
2022/01/03 07:50:36;;;;;;;;;;;;;;;;;;7398582;19;19933;-58
2022/01/03 07:53:04;;;;;;;;;;;;;;;;;;7394883;19;20336;-51
2022/01/03 07:55:31;;;;;;;;;;;;;;;;;;7395111;19;19918;-63
2022/01/03 07:57:58;;;;;;;;;;;;;;;;;;7393929;19;19918;-48
2022/01/03 08:00:26;;;;;;;;;;;;;;;;;;7394968;19;19923;-66
2022/01/03 08:02:53;;;;;;;;;;;;;;;;;;7394470;19;19918;-49
2022/01/03 08:05:20;;;;;;;;;;;;;;;;;;7392751;19;19921;-53
2022/01/03 08:07:47;;;;;;;;;;;;;;;;;;7393482;19;19918;-51
2022/01/03 08:10:15;;;;;;;;;;;;;;;;;;7394432;19;19968;-51
2022/01/03 08:12:44;;;;;;;;;;;;;;;;;;7394306;19;19919;-52
2022/01/03 08:15:11;;;;;;;;;;;;;;;;;;7394176;19;19922;-53
2022/01/03 08:17:39;;;;;;;;;;;;;;;;;;7392158;19;19925;-55
2022/01/03 08:20:06;;;;;;;;;;;;;;;;;;7393054;19;19921;-49
2022/01/03 08:22:33;;;;;;;;;;;;;;;;;;7394656;19;19915;-49
2022/01/03 08:25:01;;;;;;;;;;;;;;;;;;7393830;19;19919;-51
2022/01/03 08:27:28;;;;;;;;;;;;;;;;;;7392767;19;20348;-49
2022/01/03 08:29:55;;;;;;;;;;;;;;;;;;7393614;19;19919;-64
2022/01/03 08:32:22;;;;;;;;;;;;;;;;;;7391992;19;20337;-64
2022/01/03 08:34:50;;;;;;;;;;;;;;;;;;7393029;19;19938;-50
2022/01/03 08:37:17;;;;;;;;;;;;;;;;;;7390697;19;20271;-50
2022/01/03 08:39:44;;;;;;;;;;;;;;;;;;7392961;19;19914;-55
2022/01/03 08:42:12;;;;;;;;;;;;;;;;;;7393725;19;19929;-62
2022/01/03 08:44:39;;;;;;;;;;;;;;;;;;7392944;19;19918;-64
2022/01/03 08:47:07;;;;;;;;;;;;;;;;;;7391823;19;19922;-49
2022/01/03 08:49:34;;;;;;;;;;;;;;;;;;7393907;19;19911;-65
2022/01/03 08:52:02;;;;;;;;;;;;;;;;;;7393364;19;20252;-54
2022/01/03 08:54:29;;;;;;;;;;;;;;;;;;7393021;19;20011;-56
2022/01/03 08:56:56;;;;;;;;;;;;;;;;;;7391322;19;19950;-65
2022/01/03 08:59:25;;;;;;;;;;;;;;;;;;7392919;19;19918;-65
2022/01/03 09:01:52;;;;;;;;;;;;;;;;;;7393143;19;19941;-62
2022/01/03 09:04:19;;;;;;;;;;;;;;;;;;7392163;19;19917;-50
2022/01/03 09:06:46;;;;;;;;;;;;;;;;;;7391443;19;20351;-55
2022/01/03 09:09:13;;;;;;;;;;;;;;;;;;7392167;19;20340;-53
2022/01/03 09:11:40;;;;;;;;;;;;;;;;;;7392739;19;19960;-59
2022/01/03 09:14:08;;;;;;;;;;;;;;;;;;7393158;19;20039;-56
2022/01/03 09:16:35;;;;;;;;;;;;;;;;;;7392445;19;20638;-59
2022/01/03 09:19:02;;;;;;;;;;;;;;;;;;7391180;19;19946;-61
2022/01/03 09:21:30;;;;;;;;;;;;;;;;;;7392130;19;20339;-63
2022/01/03 09:29:40;;;;;;;;;;;;;;;;;;7392141;19;19919;-53
2022/01/03 09:32:07;;;;;;;;;;;;;;;;;;7391559;19;19919;-61
2022/01/03 09:34:35;;;;;;;;;;;;;;;;;;7392292;19;19934;-54
2022/01/03 09:37:03;;;;;;;;;;;;;;;;;;7390355;19;19925;-56
2022/01/03 09:39:30;;;;;;;;;;;;;;;;;;7392372;19;19978;-56
2022/01/03 09:42:02;;;;;;;;;;;;;;;;;;7392050;19;19926;-55
2022/01/03 09:44:30;;;;;;;;;;;;;;;;;;7395889;19;19962;-67
2022/01/03 09:47:04;;;;;;;;;;;;;;;;;;7396806;19;19919;-54
2022/01/03 09:49:32;;;;;;;;;;;;;;;;;;7399830;19;19982;-66
2022/01/03 09:52:00;;;;;;;;;;;;;;;;;;7397912;19;19986;-68
2022/01/03 09:54:28;;;;;;;;;;;;;;;;;;7399332;19;19918;-55
2022/01/03 09:56:57;;;;;;;;;;;;;;;;;;7397836;19;19918;-54
2022/01/03 09:59:27;;;;;;;;;;;;;;;;;;7397654;19;19921;-55
2022/01/03 10:01:56;;;;;;;;;;;;;;;;;;7398357;19;19914;-53
2022/01/03 10:04:24;;;;;;;;;;;;;;;;;;7398027;19;19933;-56
2022/01/03 10:06:51;;;;;;;;;;;;;;;;;;7396256;19;20225;-51
2022/01/03 10:09:19;;;;;;;;;;;;;;;;;;7398570;19;19939;-66
2022/01/03 10:11:47;;;;;;;;;;;;;;;;;;7398128;19;19918;-54
2022/01/03 10:14:15;;;;;;;;;;;;;;;;;;7398637;19;19918;-51
2022/01/03 10:16:43;;;;;;;;;;;;;;;;;;7395927;19;20339;-50
2022/01/03 10:19:19;;;;;;;;;;;;;;;;;;7397244;19;19922;-53
2022/01/03 10:21:48;;;;;;;;;;;;;;;;;;7397562;19;19943;-66
2022/01/03 10:24:16;;;;;;;;;;;;;;;;;;7397571;19;19915;-55
2022/01/03 10:26:53;;;;;;;;;;;;;;;;;;7396090;19;19919;-63
2022/01/03 10:29:21;;;;;;;;;;;;;;;;;;7397446;19;19922;-52
2022/01/03 10:31:56;;;;;;;;;;;;;;;;;;7397704;19;19914;-54
2022/01/03 10:34:24;;;;;;;;;;;;;;;;;;7397418;19;19923;-66
2022/01/03 10:36:52;;;;;;;;;;;;;;;;;;7395704;19;19919;-55
2022/01/03 10:39:20;;;;;;;;;;;;;;;;;;7396644;19;20328;-54
2022/01/03 10:41:48;;;;;;;;;;;;;;;;;;7396900;19;19911;-58
2022/01/03 10:44:30;;;;;;;;;;;;;;;;;;7400615;19;19929;-64
2022/01/03 10:46:57;;;;;;;;;;;;;;;;;;7395011;19;19939;-67
2022/01/03 10:49:25;;;;;;;;;;;;;;;;;;7397782;19;19966;-58
2022/01/03 10:52:09;;;;;;;;;;;;;;;;;;7396887;19;19938;-59
2022/01/03 10:54:36;;;;;;;;;;;;;;;;;;7396199;19;19929;-55
2022/01/03 10:57:04;;;;;;;;;;;;;;;;;;7396818;19;19959;-55
2022/01/03 10:59:34;;;;;;;;;;;;;;;;;;7396654;19;19914;-66
2022/01/03 11:02:04;;;;;;;;;;;;;;;;;;7397385;19;19918;-51
2022/01/03 11:05:03;;;;;;;;;;;;;;;;;;7396275;19;19915;-58
2022/01/03 11:13:02;;;;;;;;;;;;;;;;;;7396493;19;19947;-49
2022/01/03 11:15:29;;;;;;;;;;;;;;;;;;7396710;19;19925;-59
2022/01/03 11:18:09;;;;;;;;;;;;;;;;;;7396015;19;19919;-56
2022/01/03 11:20:37;;;;;;;;;;;;;;;;;;7396999;19;19910;-53
2022/01/03 11:23:05;;;;;;;;;;;;;;;;;;7395943;19;19932;-52
2022/01/03 11:25:33;;;;;;;;;;;;;;;;;;7394838;19;19946;-67
2022/01/03 11:28:01;;;;;;;;;;;;;;;;;;7394076;19;20459;-55
2022/01/03 11:30:28;;;;;;;;;;;;;;;;;;7396006;19;19926;-64
2022/01/03 11:32:56;;;;;;;;;;;;;;;;;;7395652;19;20347;-54
2022/01/03 11:35:26;;;;;;;;;;;;;;;;;;7394754;19;19915;-58
2022/01/03 11:37:53;;;;;;;;;;;;;;;;;;7395008;19;19915;-60
2022/01/03 11:40:21;;;;;;;;;;;;;;;;;;7396321;19;19911;-67
2022/01/03 11:42:49;;;;;;;;;;;;;;;;;;7395460;19;19923;-52
2022/01/03 11:45:16;;;;;;;;;;;;;;;;;;7395870;19;19986;-66
2022/01/03 11:47:43;;;;;;;;;;;;;;;;;;7393365;19;19919;-52
2022/01/03 11:50:11;;;;;;;;;;;;;;;;;;7396702;19;19921;-56
2022/01/03 11:52:42;;;;;;;;;;;;;;;;;;7395338;19;19995;-51
2022/01/03 11:55:10;;;;;;;;;;;;;;;;;;7394813;19;19922;-67
2022/01/03 12:03:47;;;;;;;;;;;;;;;;;;7394340;19;19994;-58
2022/01/03 12:06:22;;;;;;;;;;;;;;;;;;7391327;19;19926;-64
2022/01/03 12:08:54;;;;;;;;;;;;;;;;;;7394434;19;19925;-60
2022/01/03 12:11:22;;;;;;;;;;;;;;;;;;7393708;19;19914;-54
2022/01/03 12:13:59;;;;;;;;;;;;;;;;;;7394157;19;19918;-67
2022/01/03 12:16:45;;;;;;;;;;;;;;;;;;7393885;19;20347;-55
2022/01/03 12:19:32;;;;;;;;;;;;;;;;;;7393585;19;19914;-58
2022/01/03 12:22:10;;;;;;;;;;;;;;;;;;7393035;19;19911;-55
2022/01/03 12:24:53;;;;;;;;;;;;;;;;;;7393989;19;19918;-51
2022/01/03 12:27:20;;;;;;;;;;;;;;;;;;7392434;19;20355;-58
2022/01/03 12:29:50;;;;;;;;;;;;;;;;;;7393466;19;19918;-56
2022/01/03 12:33:14;;;;;;;;;;;;;;;;;;7428002;19;19903;-50
2022/01/03 12:35:42;;;;;;;;;;;;;;;;;;7428350;19;20261;-47
2022/01/03 12:38:12;;;;;;;;;;;;;;;;;;7427582;19;19998;-58
2022/01/03 12:40:43;;;;;;;;;;;;;;;;;;7428426;19;19915;-56
2022/01/03 12:43:14;;;;;;;;;;;;;;;;;;7428293;19;19918;-52
2022/01/03 12:45:44;;;;;;;;;;;;;;;;;;7427477;19;19911;-52
2022/01/03 12:48:12;;;;;;;;;;;;;;;;;;7427258;19;20353;-50
2022/01/03 12:50:40;;;;;;;;;;;;;;;;;;7428236;19;20006;-50
2022/01/03 12:53:09;;;;;;;;;;;;;;;;;;7424180;19;20288;-46
2022/01/03 12:55:41;;;;;;;;;;;;;;;;;;7427944;19;19929;-64
2022/01/03 12:58:14;;;;;;;;;;;;;;;;;;7427447;19;19918;-47
2022/01/03 13:00:45;;;;;;;;;;;;;;;;;;7428229;19;19922;-53
2022/01/03 13:03:22;;;;;;;;;;;;;;;;;;7426820;19;20337;-54
2022/01/03 13:06:10;;;;;;;;;;;;;;;;;;7427336;19;19914;-65
2022/01/03 13:08:38;;;;;;;;;;;;;;;;;;7427349;19;19978;-55
2022/01/03 13:11:08;;;;;;;;;;;;;;;;;;7426961;19;19939;-51
2022/01/03 13:13:36;;;;;;;;;;;;;;;;;;7426359;19;19919;-58
2022/01/03 13:16:22;;;;;;;;;;;;;;;;;;7426672;19;19921;-52
2022/01/03 13:18:51;;;;;;;;;;;;;;;;;;7380813;19;19922;-53
2022/01/03 13:21:19;;;;;;;;;;;;;;;;;;7426866;19;19925;-49
2022/01/03 13:24:03;;;;;;;;;;;;;;;;;;7425616;19;19918;-52
2022/01/03 13:26:32;;;;;;;;;;;;;;;;;;7425638;19;19936;-53
2022/01/03 13:29:00;;;;;;;;;;;;;;;;;;7426407;19;19915;-53
2022/01/03 13:31:27;;;;;;;;;;;;;;;;;;7424828;19;19994;-51
2022/01/03 13:33:55;;;;;;;;;;;;;;;;;;7426248;19;19941;-49
2022/01/03 13:36:36;;;;;;;;;;;;;;;;;;7426155;19;19923;-49
2022/01/03 13:39:07;;;;;;;;;;;;;;;;;;7425676;19;19938;-57
2022/01/03 13:41:36;;;;;;;;;;;;;;;;;;7425653;19;20530;-57
2022/01/03 13:44:04;;;;;;;;;;;;;;;;;;7403848;19;19915;-51
2022/01/03 13:49:22;;;;;;;;;;;;;;;;;;7397011;19;19925;-49
2022/01/03 13:51:50;;;;;;;;;;;;;;;;;;7396137;19;19915;-61
2022/01/03 13:54:28;;;;;;;;;;;;;;;;;;7396904;19;19915;-51
2022/01/03 13:56:56;;;;;;;;;;;;;;;;;;7396749;19;19926;-67
2022/01/03 13:59:25;;;;;;;;;;;;;;;;;;7396206;19;20334;-68
2022/01/03 14:01:53;;;;;;;;;;;;;;;;;;7396429;19;19918;-65
2022/01/03 14:04:21;;;;;;;;;;;;;;;;;;7396559;19;19923;-55
2022/01/03 14:07:07;;;;;;;;;;;;;;;;;;7396437;19;19921;-59
2022/01/03 14:09:39;;;;;;;;;;;;;;;;;;7396855;19;19919;-64
2022/01/03 14:12:14;;;;;;;;;;;;;;;;;;7395579;19;19924;-51
2022/01/03 14:14:44;;;;;;;;;;;;;;;;;;7396953;19;19919;-48
2022/01/03 14:17:12;;;;;;;;;;;;;;;;;;7391907;19;19911;-47
2022/01/03 14:19:40;;;;;;;;;;;;;;;;;;7392020;19;19978;-47
2022/01/03 14:22:11;;;;;;;;;;;;;;;;;;7393471;19;19928;-64
2022/01/03 14:24:55;;;;;;;;;;;;;;;;;;7396131;19;19918;-53
2022/01/03 14:27:22;;;;;;;;;;;;;;;;;;7399030;19;19922;-57
2022/01/03 14:29:50;;;;;;;;;;;;;;;;;;7394723;19;19919;-53
2022/01/03 14:32:17;;;;;;;;;;;;;;;;;;7392093;19;19918;-51
2022/01/03 14:34:51;;;;;;;;;;;;;;;;;;7395197;19;19921;-56
2022/01/03 14:37:22;;;;;;;;;;;;;;;;;;7394231;19;19919;-56
2022/01/03 14:39:50;;;;;;;;;;;;;;;;;;7394028;19;19918;-66
2022/01/03 14:42:36;;;;;;;;;;;;;;;;;;7395171;19;20280;-64
2022/01/03 14:45:13;;;;;;;;;;;;;;;;;;7394756;19;19919;-65
2022/01/03 14:47:41;;;;;;;;;;;;;;;;;;7392883;19;19919;-47
2022/01/03 14:50:09;;;;;;;;;;;;;;;;;;7395766;19;19931;-66
2022/01/03 14:52:39;;;;;;;;;;;;;;;;;;7394261;19;19923;-61
2022/01/03 14:55:11;;;;;;;;;;;;;;;;;;7392946;19;19939;-52
2022/01/03 14:57:42;;;;;;;;;;;;;;;;;;7394066;19;19925;-53
2022/01/03 15:00:09;;;;;;;;;;;;;;;;;;7393523;19;19915;-50
2022/01/03 15:02:37;;;;;;;;;;;;;;;;;;7393540;19;19919;-52
2022/01/03 15:05:10;;;;;;;;;;;;;;;;;;7395011;19;19919;-52
2022/01/03 15:07:37;;;;;;;;;;;;;;;;;;7395000;19;19919;-49
2022/01/03 15:10:07;;;;;;;;;;;;;;;;;;7391890;19;19937;-51
2022/01/03 15:12:54;;;;;;;;;;;;;;;;;;7392054;19;19919;-48
2022/01/03 15:15:25;;;;;;;;;;;;;;;;;;7394904;19;19984;-50
2022/01/03 15:17:53;;;;;;;;;;;;;;;;;;7394023;19;19919;-55
2022/01/03 15:20:22;;;;;;;;;;;;;;;;;;7393160;19;19981;-50
2022/01/03 15:22:50;;;;;;;;;;;;;;;;;;7394304;19;19915;-52
2022/01/03 15:25:19;;;;;;;;;;;;;;;;;;7393926;19;19923;-58
2022/01/03 15:27:46;;;;;;;;;;;;;;;;;;7393755;19;19931;-51
2022/01/03 15:30:20;;;;;;;;;;;;;;;;;;7393679;19;19911;-51
2022/01/03 15:32:48;;;;;;;;;;;;;;;;;;7391598;19;19942;-51
2022/01/03 15:35:15;;;;;;;;;;;;;;;;;;7392988;19;20328;-49
2022/01/03 15:37:42;;;;;;;;;;;;;;;;;;7392768;19;19926;-51
2022/01/03 15:40:10;;;;;;;;;;;;;;;;;;7393741;19;20269;-54
2022/01/03 15:42:39;;;;;;;;;;;;;;;;;;7393288;19;19911;-58
2022/01/03 15:45:06;;;;;;;;;;;;;;;;;;7393836;19;19919;-50
2022/01/03 15:47:35;;;;;;;;;;;;;;;;;;7393573;19;20204;-59
2022/01/03 15:50:04;;;;;;;;;;;;;;;;;;7393524;19;19922;-55
2022/01/03 15:52:31;;;;;;;;;;;;;;;;;;7392007;19;19919;-51
2022/01/03 15:54:58;;;;;;;;;;;;;;;;;;7392774;19;19934;-49
2022/01/03 15:57:25;;;;;;;;;;;;;;;;;;7392229;19;20331;-64
2022/01/03 15:59:53;;;;;;;;;;;;;;;;;;7393803;19;20851;-56
2022/01/03 16:02:20;;;;;;;;;;;;;;;;;;7389435;19;19918;-50
2022/01/03 16:04:48;;;;;;;;;;;;;;;;;;7388020;19;20339;-50
2022/01/03 16:07:15;;;;;;;;;;;;;;;;;;7388505;19;19934;-48
2022/01/03 16:09:43;;;;;;;;;;;;;;;;;;7392466;19;19925;-54
2022/01/03 16:12:10;;;;;;;;;;;;;;;;;;7392068;19;19934;-52
2022/01/03 16:14:38;;;;;;;;;;;;;;;;;;7392430;19;19925;-59
2022/01/03 16:17:05;;;;;;;;;;;;;;;;;;7390737;19;19910;-49
2022/01/03 16:19:35;;;;;;;;;;;;;;;;;;7365723;19;20021;-52
2022/01/03 16:22:02;;;;;;;;;;;;;;;;;;7391573;19;19929;-50
2022/01/03 16:24:29;;;;;;;;;;;;;;;;;;7392213;19;19911;-52
2022/01/03 16:26:57;;;;;;;;;;;;;;;;;;7391315;19;19970;-46
2022/01/03 16:29:24;;;;;;;;;;;;;;;;;;7391010;19;19918;-51
2022/01/03 16:31:52;;;;;;;;;;;;;;;;;;7390953;19;20029;-52
2022/01/03 16:34:19;;;;;;;;;;;;;;;;;;7391817;19;19933;-47
2022/01/03 16:36:47;;;;;;;;;;;;;;;;;;7390728;19;19922;-58
2022/01/03 16:39:14;;;;;;;;;;;;;;;;;;7389116;19;19930;-57
2022/01/03 16:41:41;;;;;;;;;;;;;;;;;;7392225;19;19927;-61
2022/01/03 16:44:09;;;;;;;;;;;;;;;;;;7392208;19;19918;-53
2022/01/03 16:46:36;;;;;;;;;;;;;;;;;;7391185;19;20328;-48
2022/01/03 16:49:04;;;;;;;;;;;;;;;;;;7391528;19;20339;-50
2022/01/03 16:51:31;;;;;;;;;;;;;;;;;;7395259;19;19970;-60
2022/01/03 16:53:58;;;;;;;;;;;;;;;;;;7389476;19;19922;-49
2022/01/03 16:56:26;;;;;;;;;;;;;;;;;;7391331;19;19915;-57
2022/01/03 16:58:53;;;;;;;;;;;;;;;;;;7390875;19;20357;-58
2022/01/03 17:01:20;;;;;;;;;;;;;;;;;;7390784;19;20368;-54
2022/01/03 17:03:50;;;;;;;;;;;;;;;;;;7392386;19;20371;-58
2022/01/03 17:06:18;;;;;;;;;;;;;;;;;;7391017;19;20357;-47
2022/01/03 17:08:45;;;;;;;;;;;;;;;;;;7391028;19;20327;-62
2022/01/03 17:11:14;;;;;;;;;;;;;;;;;;7391558;19;19919;-49
2022/01/03 17:13:42;;;;;;;;;;;;;;;;;;7389754;19;19942;-51
2022/01/03 17:16:10;;;;;;;;;;;;;;;;;;7391485;19;19946;-59
2022/01/03 17:18:37;;;;;;;;;;;;;;;;;;7393316;19;19925;-51
2022/01/03 17:21:05;;;;;;;;;;;;;;;;;;7397898;19;19995;-54
2022/01/03 17:23:32;;;;;;;;;;;;;;;;;;7397556;19;19919;-62
2022/01/03 17:26:00;;;;;;;;;;;;;;;;;;7395516;19;19919;-54
2022/01/03 17:28:27;;;;;;;;;;;;;;;;;;7400417;19;20297;-55
2022/01/03 17:30:56;;;;;;;;;;;;;;;;;;7397311;19;20314;-57